Horizon — 9HYZ9 — position and weather

sailwx.info

Track history (hours):
 
Tides and Currents Weather Stations Pressure Air Temp Water Temp Dewpoint Dewpoint Depression Visibility Wind Speed Wind Dir Waves Ship Positions

Horizon

Last reported at 2018-May-22 17:43 UTC. Time now 2018-May-22 18:00 UTC.
Position N 37°48' E 025°13'.

Length 207 m; draft 7.7 m.

Type: Passenger vessel. MMSI: 249727000.

Date/timePositionNaut miles runAvg speedWind from/ knotsBaromVisibWave heightAir tempDewpointWater temp
2018-May-22 17:43N 37°48' E 025°13'313.0
2018-May-22 17:30N 37°46' E 025°15'613.0
2018-May-22 17:00N 37°40' E 025°18'510.5
2018-May-22 16:30N 37°35' E 025°19'4 7.1
2018-May-22 16:00N 37°31' E 025°18'4 7.4
2018-May-22 15:30N 37°28' E 025°19'0 0.9
2018-May-22 14:58N 37°27' E 025°19'0 0.0
2018-May-22 14:25N 37°27' E 025°19'0 0.0
2018-May-22 13:55N 37°27' E 025°19'0 0.0
2018-May-22 13:28N 37°27' E 025°19'0 0.0
2018-May-22 12:58N 37°27' E 025°19'0 0.0
2018-May-22 12:28N 37°27' E 025°19'0 0.0
2018-May-22 11:52N 37°27' E 025°19'0 0.0
2018-May-22 11:25N 37°27' E 025°19'0 0.0
2018-May-22 10:52N 37°27' E 025°19'0 0.0
2018-May-22 10:25N 37°27' E 025°19'0 0.0
2018-May-22 09:55N 37°27' E 025°19'0 0.0
2018-May-22 09:28N 37°27' E 025°19'0 0.0
2018-May-22 08:58N 37°27' E 025°19'0 0.0
2018-May-22 08:25N 37°27' E 025°19'0 0.0
2018-May-22 07:58N 37°27' E 025°19'0 0.0
2018-May-22 07:28N 37°27' E 025°19'0 0.0
2018-May-22 06:58N 37°27' E 025°19'0 0.0
2018-May-22 06:25N 37°27' E 025°19'0 0.0
2018-May-22 05:58N 37°27' E 025°19'0 0.0
2018-May-22 05:28N 37°27' E 025°19'1 1.1
2018-May-22 04:58N 37°28' E 025°19'612.2
2018-May-22 04:30N 37°28' E 025°11'612.9
2018-May-22 04:01N 37°22' E 025°08'612.7
2018-May-22 03:30N 37°18' E 025°02'713.8
2018-May-22 03:00N 37°14' E 024°54'5212.0
2018-May-21 22:41N 37°07' E 023°50'1713.0
2018-May-21 21:24N 37°24' E 023°48'613.7
2018-May-21 20:59N 37°30' E 023°46'613.0
2018-May-21 20:30N 37°36' E 023°44'713.2
2018-May-21 20:00N 37°42' E 023°41'612.7
2018-May-21 19:30N 37°47' E 023°37'713.5
2018-May-21 19:00N 37°54' E 023°36'2 4.2
2018-May-21 18:29N 37°56' E 023°37'0 0.0
2018-May-21 17:59N 37°56' E 023°37'0 0.0
2018-May-21 17:29N 37°56' E 023°37'0 0.0
2018-May-21 16:59N 37°56' E 023°37'0 0.0
2018-May-21 16:29N 37°56' E 023°37'0 0.0
2018-May-21 15:59N 37°56' E 023°37'0 0.0
2018-May-21 15:29N 37°56' E 023°37'0 0.0
2018-May-21 14:59N 37°56' E 023°37'0 0.0
2018-May-21 14:29N 37°56' E 023°37'0 0.0
2018-May-21 13:59N 37°56' E 023°37'0 0.0
2018-May-21 13:29N 37°56' E 023°37'0 0.0
2018-May-21 12:59N 37°56' E 023°37'0 0.0
2018-May-21 12:29N 37°56' E 023°37'0 0.0
2018-May-21 11:59N 37°56' E 023°37'0 0.0
2018-May-21 11:29N 37°56' E 023°37'0 0.0
2018-May-21 10:59N 37°56' E 023°37'0 0.0
2018-May-21 10:29N 37°56' E 023°37'0 0.0
2018-May-21 09:59N 37°56' E 023°37'0 0.0
2018-May-21 09:26N 37°56' E 023°37'0 0.0
2018-May-21 08:59N 37°56' E 023°37'0 0.0
2018-May-21 08:26N 37°56' E 023°37'0 0.0
2018-May-21 07:59N 37°56' E 023°37'0 0.0
2018-May-21 07:29N 37°56' E 023°37'0 0.0
2018-May-21 06:59N 37°56' E 023°37'0 0.0
2018-May-21 06:29N 37°56' E 023°37'0 0.0
2018-May-21 05:59N 37°56' E 023°37'0 0.0
2018-May-21 05:29N 37°56' E 023°37'0 0.0
2018-May-21 04:59N 37°56' E 023°37'0 0.0
2018-May-21 04:29N 37°56' E 023°37'0 0.1
2018-May-21 04:00N 37°56' E 023°37'1 2.5
2018-May-21 03:30N 37°55' E 023°36'1 1.9
2018-May-21 03:00N 37°54' E 023°37'712.9
2018-May-21 02:30N 37°49' E 023°41'815.1
2018-May-21 02:01N 37°42' E 023°45'510.1
2018-May-21 01:30N 37°37' E 023°47'510.0
2018-May-21 01:00N 37°32' E 023°47'5 9.8
2018-May-21 00:30N 37°27' E 023°48'40 1.7
2018-May-20 01:04N 37°01' E 023°10'213.5
2018-May-20 00:53N 36°59' E 023°12'513.6
2018-May-20 00:30N 36°54' E 023°15'713.2
2018-May-19 23:56N 36°48' E 023°19'  
2018-May-17 14:40N 37°07' E 024°56'316.0
2018-May-17 14:31N 37°09' E 024°57'714.8
2018-May-17 14:00N 37°16' E 025°01'6 9.2
2018-May-17 13:20N 37°21' E 025°05'3 9.0
2018-May-17 13:00N 37°24' E 025°07'4 8.9
2018-May-17 12:30N 37°27' E 025°10'5 9.1
2018-May-17 12:00N 37°30' E 025°15'5 9.2
2018-May-17 11:30N 37°34' E 025°18'5 9.6
2018-May-17 11:00N 37°39' E 025°20'5 9.8
2018-May-17 10:31N 37°43' E 025°16'5 9.9
2018-May-17 10:00N 37°48' E 025°14'5 9.8
2018-May-17 09:27N 37°52' E 025°11'32 0.8
2018-May-15 19:45N 38°20' E 024°50'2912.7
2018-May-15 17:29N 37°55' E 025°09'613.5
2018-May-15 17:00N 37°49' E 025°13'613.1
2018-May-15 16:31N 37°43' E 025°16'712.2
2018-May-15 15:58N 37°37' E 025°19'612.9
2018-May-15 15:30N 37°31' E 025°18'5 9.1
2018-May-15 15:01N 37°27' E 025°19'0 0.1
2018-May-15 14:25N 37°27' E 025°19'0 0.0
2018-May-15 13:55N 37°27' E 025°19'0 0.0
2018-May-15 13:25N 37°27' E 025°19'0 0.0
2018-May-15 12:55N 37°27' E 025°19'0 0.0
2018-May-15 12:28N 37°27' E 025°19'0 0.0
2018-May-15 11:55N 37°27' E 025°19'0 0.1
2018-May-15 11:28N 37°27' E 025°19'0 0.0
2018-May-15 10:58N 37°27' E 025°19'0 0.1
2018-May-15 10:28N 37°27' E 025°19'0 0.0
2018-May-15 09:58N 37°27' E 025°19'0 0.0
2018-May-15 09:25N 37°27' E 025°19'0 0.0
2018-May-15 08:55N 37°27' E 025°19'0 0.0
2018-May-15 08:28N 37°27' E 025°19'0 0.0
2018-May-15 07:55N 37°27' E 025°19'0 0.0
2018-May-15 07:22N 37°27' E 025°19'0 0.0
2018-May-15 06:58N 37°27' E 025°19'0 0.1
2018-May-15 06:28N 37°27' E 025°19'0 0.1
2018-May-15 05:58N 37°27' E 025°19'0 0.1
2018-May-15 05:28N 37°27' E 025°19'0 0.3
2018-May-15 05:00N 37°27' E 025°19'5 9.7
2018-May-15 04:30N 37°28' E 025°13'713.5
2018-May-15 04:00N 37°22' E 025°08'714.1
2018-May-15 03:30N 37°17' E 025°01'714.6
2018-May-15 03:00N 37°14' E 024°53'3813.9
2018-May-15 00:16N 37°03' E 024°08'414.2
2018-May-15 00:00N 37°04' E 024°03'1313.0
2018-May-14 22:59N 37°03' E 023°47'612.5
2018-May-14 22:30N 37°09' E 023°48'1213.2
2018-May-14 21:35N 37°21' E 023°49'214.6
2018-May-14 21:27N 37°23' E 023°48'714.8
2018-May-14 21:00N 37°29' E 023°46'714.6
2018-May-14 20:30N 37°36' E 023°44'714.4
2018-May-14 20:00N 37°43' E 023°40'714.6
2018-May-14 19:30N 37°50' E 023°36'611.8
2018-May-14 19:00N 37°55' E 023°36'1 2.0
2018-May-14 18:28N 37°56' E 023°37'0 0.0
2018-May-14 17:58N 37°56' E 023°37'0 0.0
2018-May-14 17:28N 37°56' E 023°37'0 0.0
2018-May-14 16:58N 37°56' E 023°37'0 0.0
2018-May-14 16:28N 37°56' E 023°37'0 0.0
2018-May-14 15:58N 37°56' E 023°37'0 0.0
2018-May-14 15:28N 37°56' E 023°37'0 0.0
2018-May-14 14:58N 37°56' E 023°37'0 0.0
2018-May-14 14:28N 37°56' E 023°37'0 0.0
2018-May-14 13:58N 37°56' E 023°37'0 0.0
2018-May-14 13:28N 37°56' E 023°37'0 0.0
2018-May-14 12:58N 37°56' E 023°37'0 0.0
2018-May-14 12:28N 37°56' E 023°37'0 0.0
2018-May-14 11:55N 37°56' E 023°37'0 0.0
2018-May-14 11:28N 37°56' E 023°37'0 0.0
2018-May-14 10:58N 37°56' E 023°37'0 0.0
2018-May-14 10:28N 37°56' E 023°37'0 0.0
2018-May-14 09:58N 37°56' E 023°37'0 0.0
2018-May-14 09:28N 37°56' E 023°37'0 0.0
2018-May-14 08:58N 37°56' E 023°37'0 0.0
2018-May-14 08:28N 37°56' E 023°37'0 0.0
2018-May-14 07:58N 37°56' E 023°37'0 0.0
2018-May-14 07:28N 37°56' E 023°37'0 0.0
2018-May-14 06:58N 37°56' E 023°37'0 0.0
2018-May-14 06:28N 37°56' E 023°37'0 0.0
2018-May-14 05:58N 37°56' E 023°37'0 0.0
2018-May-14 05:28N 37°56' E 023°37'0 0.0
2018-May-14 04:58N 37°56' E 023°37'0 0.0
2018-May-14 04:28N 37°56' E 023°37'0 0.0
2018-May-14 03:58N 37°56' E 023°37'0 0.3
2018-May-14 03:30N 37°56' E 023°37'2 3.6
2018-May-14 03:00N 37°55' E 023°37'510.8
2018-May-14 02:30N 37°50' E 023°40'510.7
2018-May-14 02:00N 37°45' E 023°43'510.5
2018-May-14 01:30N 37°40' E 023°46'510.5
2018-May-14 01:00N 37°35' E 023°47'510.5
2018-May-14 00:30N 37°30' E 023°48'510.1
2018-May-13 23:59N 37°25' E 023°49'1010.2
2018-May-13 23:03N 37°15' E 023°51'110.0
2018-May-13 23:00N 37°15' E 023°51'810.3
2018-May-13 22:13N 37°10' E 023°59'2 9.5
2018-May-13 22:00N 37°09' E 024°01'41 2.0
2018-May-13 01:01N 37°01' E 023°10'312.7
2018-May-13 00:46N 36°58' E 023°12'312.9
2018-May-13 00:31N 36°55' E 023°14'  
Track history (hours):
 
Tides and Currents Weather Stations Pressure Air Temp Water Temp Dewpoint Dewpoint Depression Visibility Wind Speed Wind Dir Waves Ship Positions

Horizon

Last reported at 2018-May-22 17:43 UTC. Time now 2018-May-22 18:00 UTC.
Position N 37°48' E 025°13'.

Length 207 m; draft 7.7 m.

Type: Passenger vessel. MMSI: 249727000.

Date/timePositionNaut miles runAvg speedWind from/ knotsBaromVisibWave heightAir tempDewpointWater temp
2018-May-22 17:43N 37°48' E 025°13'313.0
2018-May-22 17:30N 37°46' E 025°15'613.0
2018-May-22 17:00N 37°40' E 025°18'510.5
2018-May-22 16:30N 37°35' E 025°19'4 7.1
2018-May-22 16:00N 37°31' E 025°18'4 7.4
2018-May-22 15:30N 37°28' E 025°19'0 0.9
2018-May-22 14:58N 37°27' E 025°19'0 0.0
2018-May-22 14:25N 37°27' E 025°19'0 0.0
2018-May-22 13:55N 37°27' E 025°19'0 0.0
2018-May-22 13:28N 37°27' E 025°19'0 0.0
2018-May-22 12:58N 37°27' E 025°19'0 0.0
2018-May-22 12:28N 37°27' E 025°19'0 0.0
2018-May-22 11:52N 37°27' E 025°19'0 0.0
2018-May-22 11:25N 37°27' E 025°19'0 0.0
2018-May-22 10:52N 37°27' E 025°19'0 0.0
2018-May-22 10:25N 37°27' E 025°19'0 0.0
2018-May-22 09:55N 37°27' E 025°19'0 0.0
2018-May-22 09:28N 37°27' E 025°19'0 0.0
2018-May-22 08:58N 37°27' E 025°19'0 0.0
2018-May-22 08:25N 37°27' E 025°19'0 0.0
2018-May-22 07:58N 37°27' E 025°19'0 0.0
2018-May-22 07:28N 37°27' E 025°19'0 0.0
2018-May-22 06:58N 37°27' E 025°19'0 0.0
2018-May-22 06:25N 37°27' E 025°19'0 0.0
2018-May-22 05:58N 37°27' E 025°19'0 0.0
2018-May-22 05:28N 37°27' E 025°19'1 1.1
2018-May-22 04:58N 37°28' E 025°19'612.2
2018-May-22 04:30N 37°28' E 025°11'612.9
2018-May-22 04:01N 37°22' E 025°08'612.7
2018-May-22 03:30N 37°18' E 025°02'713.8
2018-May-22 03:00N 37°14' E 024°54'5212.0
2018-May-21 22:41N 37°07' E 023°50'1713.0
2018-May-21 21:24N 37°24' E 023°48'613.7
2018-May-21 20:59N 37°30' E 023°46'613.0
2018-May-21 20:30N 37°36' E 023°44'713.2
2018-May-21 20:00N 37°42' E 023°41'612.7
2018-May-21 19:30N 37°47' E 023°37'713.5
2018-May-21 19:00N 37°54' E 023°36'2 4.2
2018-May-21 18:29N 37°56' E 023°37'0 0.0
2018-May-21 17:59N 37°56' E 023°37'0 0.0
2018-May-21 17:29N 37°56' E 023°37'0 0.0
2018-May-21 16:59N 37°56' E 023°37'0 0.0
2018-May-21 16:29N 37°56' E 023°37'0 0.0
2018-May-21 15:59N 37°56' E 023°37'0 0.0
2018-May-21 15:29N 37°56' E 023°37'0 0.0
2018-May-21 14:59N 37°56' E 023°37'0 0.0
2018-May-21 14:29N 37°56' E 023°37'0 0.0
2018-May-21 13:59N 37°56' E 023°37'0 0.0
2018-May-21 13:29N 37°56' E 023°37'0 0.0
2018-May-21 12:59N 37°56' E 023°37'0 0.0
2018-May-21 12:29N 37°56' E 023°37'0 0.0
2018-May-21 11:59N 37°56' E 023°37'0 0.0
2018-May-21 11:29N 37°56' E 023°37'0 0.0
2018-May-21 10:59N 37°56' E 023°37'0 0.0
2018-May-21 10:29N 37°56' E 023°37'0 0.0
2018-May-21 09:59N 37°56' E 023°37'0 0.0
2018-May-21 09:26N 37°56' E 023°37'0 0.0
2018-May-21 08:59N 37°56' E 023°37'0 0.0
2018-May-21 08:26N 37°56' E 023°37'0 0.0
2018-May-21 07:59N 37°56' E 023°37'0 0.0
2018-May-21 07:29N 37°56' E 023°37'0 0.0
2018-May-21 06:59N 37°56' E 023°37'0 0.0
2018-May-21 06:29N 37°56' E 023°37'0 0.0
2018-May-21 05:59N 37°56' E 023°37'0 0.0
2018-May-21 05:29N 37°56' E 023°37'0 0.0
2018-May-21 04:59N 37°56' E 023°37'0 0.0
2018-May-21 04:29N 37°56' E 023°37'0 0.1
2018-May-21 04:00N 37°56' E 023°37'1 2.5
2018-May-21 03:30N 37°55' E 023°36'1 1.9
2018-May-21 03:00N 37°54' E 023°37'712.9
2018-May-21 02:30N 37°49' E 023°41'815.1
2018-May-21 02:01N 37°42' E 023°45'510.1
2018-May-21 01:30N 37°37' E 023°47'510.0
2018-May-21 01:00N 37°32' E 023°47'5 9.8
2018-May-21 00:30N 37°27' E 023°48'40 1.7
2018-May-20 01:04N 37°01' E 023°10'213.5
2018-May-20 00:53N 36°59' E 023°12'513.6
2018-May-20 00:30N 36°54' E 023°15'713.2
2018-May-19 23:56N 36°48' E 023°19'  
2018-May-17 14:40N 37°07' E 024°56'316.0
2018-May-17 14:31N 37°09' E 024°57'714.8
2018-May-17 14:00N 37°16' E 025°01'6 9.2
2018-May-17 13:20N 37°21' E 025°05'3 9.0
2018-May-17 13:00N 37°24' E 025°07'4 8.9
2018-May-17 12:30N 37°27' E 025°10'5 9.1
2018-May-17 12:00N 37°30' E 025°15'5 9.2
2018-May-17 11:30N 37°34' E 025°18'5 9.6
2018-May-17 11:00N 37°39' E 025°20'5 9.8
2018-May-17 10:31N 37°43' E 025°16'5 9.9
2018-May-17 10:00N 37°48' E 025°14'5 9.8
2018-May-17 09:27N 37°52' E 025°11'32 0.8
2018-May-15 19:45N 38°20' E 024°50'2912.7
2018-May-15 17:29N 37°55' E 025°09'613.5
2018-May-15 17:00N 37°49' E 025°13'613.1
2018-May-15 16:31N 37°43' E 025°16'712.2
2018-May-15 15:58N 37°37' E 025°19'612.9
2018-May-15 15:30N 37°31' E 025°18'5 9.1
2018-May-15 15:01N 37°27' E 025°19'0 0.1
2018-May-15 14:25N 37°27' E 025°19'0 0.0
2018-May-15 13:55N 37°27' E 025°19'0 0.0
2018-May-15 13:25N 37°27' E 025°19'0 0.0
2018-May-15 12:55N 37°27' E 025°19'0 0.0
2018-May-15 12:28N 37°27' E 025°19'0 0.0
2018-May-15 11:55N 37°27' E 025°19'0 0.1
2018-May-15 11:28N 37°27' E 025°19'0 0.0
2018-May-15 10:58N 37°27' E 025°19'0 0.1
2018-May-15 10:28N 37°27' E 025°19'0 0.0
2018-May-15 09:58N 37°27' E 025°19'0 0.0
2018-May-15 09:25N 37°27' E 025°19'0 0.0
2018-May-15 08:55N 37°27' E 025°19'0 0.0
2018-May-15 08:28N 37°27' E 025°19'0 0.0
2018-May-15 07:55N 37°27' E 025°19'0 0.0
2018-May-15 07:22N 37°27' E 025°19'0 0.0
2018-May-15 06:58N 37°27' E 025°19'0 0.1
2018-May-15 06:28N 37°27' E 025°19'0 0.1
2018-May-15 05:58N 37°27' E 025°19'0 0.1
2018-May-15 05:28N 37°27' E 025°19'0 0.3
2018-May-15 05:00N 37°27' E 025°19'5 9.7
2018-May-15 04:30N 37°28' E 025°13'713.5
2018-May-15 04:00N 37°22' E 025°08'714.1
2018-May-15 03:30N 37°17' E 025°01'714.6
2018-May-15 03:00N 37°14' E 024°53'3813.9
2018-May-15 00:16N 37°03' E 024°08'414.2
2018-May-15 00:00N 37°04' E 024°03'1313.0
2018-May-14 22:59N 37°03' E 023°47'612.5
2018-May-14 22:30N 37°09' E 023°48'1213.2
2018-May-14 21:35N 37°21' E 023°49'214.6
2018-May-14 21:27N 37°23' E 023°48'714.8
2018-May-14 21:00N 37°29' E 023°46'714.6
2018-May-14 20:30N 37°36' E 023°44'714.4
2018-May-14 20:00N 37°43' E 023°40'714.6
2018-May-14 19:30N 37°50' E 023°36'611.8
2018-May-14 19:00N 37°55' E 023°36'1 2.0
2018-May-14 18:28N 37°56' E 023°37'0 0.0
2018-May-14 17:58N 37°56' E 023°37'0 0.0
2018-May-14 17:28N 37°56' E 023°37'0 0.0
2018-May-14 16:58N 37°56' E 023°37'0 0.0
2018-May-14 16:28N 37°56' E 023°37'0 0.0
2018-May-14 15:58N 37°56' E 023°37'0 0.0
2018-May-14 15:28N 37°56' E 023°37'0 0.0
2018-May-14 14:58N 37°56' E 023°37'0 0.0
2018-May-14 14:28N 37°56' E 023°37'0 0.0
2018-May-14 13:58N 37°56' E 023°37'0 0.0
2018-May-14 13:28N 37°56' E 023°37'0 0.0
2018-May-14 12:58N 37°56' E 023°37'0 0.0
2018-May-14 12:28N 37°56' E 023°37'0 0.0
2018-May-14 11:55N 37°56' E 023°37'0 0.0
2018-May-14 11:28N 37°56' E 023°37'0 0.0
2018-May-14 10:58N 37°56' E 023°37'0 0.0
2018-May-14 10:28N 37°56' E 023°37'0 0.0
2018-May-14 09:58N 37°56' E 023°37'0 0.0
2018-May-14 09:28N 37°56' E 023°37'0 0.0
2018-May-14 08:58N 37°56' E 023°37'0 0.0
2018-May-14 08:28N 37°56' E 023°37'0 0.0
2018-May-14 07:58N 37°56' E 023°37'0 0.0
2018-May-14 07:28N 37°56' E 023°37'0 0.0
2018-May-14 06:58N 37°56' E 023°37'0 0.0
2018-May-14 06:28N 37°56' E 023°37'0 0.0
2018-May-14 05:58N 37°56' E 023°37'0 0.0
2018-May-14 05:28N 37°56' E 023°37'0 0.0
2018-May-14 04:58N 37°56' E 023°37'0 0.0
2018-May-14 04:28N 37°56' E 023°37'0 0.0
2018-May-14 03:58N 37°56' E 023°37'0 0.3
2018-May-14 03:30N 37°56' E 023°37'2 3.6
2018-May-14 03:00N 37°55' E 023°37'510.8
2018-May-14 02:30N 37°50' E 023°40'510.7
2018-May-14 02:00N 37°45' E 023°43'510.5
2018-May-14 01:30N 37°40' E 023°46'510.5
2018-May-14 01:00N 37°35' E 023°47'510.5
2018-May-14 00:30N 37°30' E 023°48'510.1
2018-May-13 23:59N 37°25' E 023°49'1010.2
2018-May-13 23:03N 37°15' E 023°51'110.0
2018-May-13 23:00N 37°15' E 023°51'810.3
2018-May-13 22:13N 37°10' E 023°59'2 9.5
2018-May-13 22:00N 37°09' E 024°01'41 2.0
2018-May-13 01:01N 37°01' E 023°10'312.7
2018-May-13 00:46N 36°58' E 023°12'312.9
2018-May-13 00:31N 36°55' E 023°14'  

Dump ship's entire track history